Aérodrome :
LOGIN :

S'inscrire | Disclaimer

   EN    FR    IT 

 










Légende :    VFR   VFR Marginal   IFR   IFR Intensif   IFR Très Intensif
Visi : 
Plafond : 
>= 8 km
>= 3000ft
5 à 8 km
1000 à 3000 ft
1500m à 5 km
500 à 1000 ft
800 à 1500m
200 à 500 ft
< 800m
< 200 ft
Symboles :   Orages  Brouillard  Fortes neiges  Fortes précipitations  Vent > 20 kt
SIGMETs :   Divers  Orages  Givrage  Turbulence  Onde Orograph.  Cendres Volcan.







- Altitude de l'aérodrome : 446 ft
- Code IATA : VNE
- Voir les cartes d'approche


LFRV - Vannes-Meucon

DERNIER METAR :
  • 280700Z AUTO 28007KT 230V310 9999 OVC007 17/15 Q0999

METARs EXPIRÉS :
  • 280630Z AUTO 28006KT 9999 BKN006 15/15 Q0999
  • 280600Z AUTO 27006KT 240V300 9999 OVC005 15/15 Q0999
  • 280530Z AUTO 28006KT 250V310 9999 OVC004 15/15 Q0999
  • 280500Z AUTO 25005KT 210V280 9999 OVC003/// ///TCU 15/15 Q0999
  • 280430Z AUTO 25006KT 220V280 9999 -RA OVC004 15/15 Q0999

TAF N/A
Pas de NOTAMs connus pour ce terrain.
1 SIGMET publié pour la FIR Brest (LFRR) :
 
Orages noyés dans la masse
LFRR SIGMET 3 VALID 280700/280800 LFPW
LFRR BREST FIR/UIR EMBD TS OBS AT 0700Z WI N4345 W00245 - N4415 W00430 - N4515 W00400 - N4600 W00545 - N4700 W00500 - N4545 W00215 TOP FL300 MOV E 25KT NC=



MET'MAP, la Météo Aéronautique d'un coup d'oeil ! - Copyright ORBIFLY Décembre 2007 - Disclaimer

ORBIFLY MET'MAP TEAM :

Programmation & Développement : Alexandra Zaïnal
Conception & Développement : Baudouin d'Aumeries
Co-Programmation & Développement : Marc-Olivier Méhu
Soutien technique & logistique : Manuel Goepfert

Contact : metmap@orbifly.com




SOURCES & CREDITS :

   NOAA